createdAt,value
2019-01-14T00:00:42.890Z,15.53
2019-01-14T00:03:10.355Z,12.53
2019-01-14T00:05:37.794Z,10.98
2019-01-14T00:08:05.198Z,13.32
2019-01-14T00:10:32.670Z,6.50
2019-01-14T00:13:00.085Z,10.30
2019-01-14T00:15:27.600Z,13.78
2019-01-14T00:17:55.020Z,17.55
2019-01-14T00:20:22.482Z,15.95
2019-01-14T00:22:49.917Z,14.63
2019-01-14T00:25:17.338Z,8.70
2019-01-14T00:27:44.765Z,13.32
2019-01-14T00:30:13.458Z,13.15
2019-01-14T00:32:40.947Z,15.93
2019-01-14T00:35:08.351Z,14.10
2019-01-14T00:37:35.837Z,15.78
2019-01-14T00:40:03.946Z,14.83
2019-01-14T00:42:31.584Z,12.40
2019-01-14T00:44:58.989Z,15.63
2019-01-14T00:47:26.420Z,25.17
2019-01-14T00:49:53.876Z,20.08
2019-01-14T00:52:21.275Z,16.65
2019-01-14T00:54:48.693Z,14.13
2019-01-14T00:57:16.123Z,17.65
2019-01-14T00:59:43.532Z,16.05
2019-01-14T01:02:10.985Z,15.80
2019-01-14T01:04:38.383Z,15.93
2019-01-14T01:07:05.879Z,15.83
2019-01-14T01:09:33.283Z,16.42
2019-01-14T01:12:00.768Z,19.45
2019-01-14T01:14:28.204Z,15.28
2019-01-14T01:16:55.620Z,16.55
2019-01-14T01:19:23.062Z,18.02
2019-01-14T01:21:50.462Z,23.15
2019-01-14T01:24:17.881Z,18.25
2019-01-14T01:26:45.298Z,16.65
2019-01-14T01:29:12.721Z,13.50
2019-01-14T01:31:40.183Z,19.95
2019-01-14T01:34:07.615Z,12.63
2019-01-14T01:36:35.281Z,21.68
2019-01-14T01:39:04.317Z,16.95
2019-01-14T01:41:31.767Z,15.15
2019-01-14T01:43:59.162Z,17.32
2019-01-14T01:46:26.592Z,18.75
2019-01-14T01:48:54.008Z,15.10
2019-01-14T01:51:21.455Z,18.35
2019-01-14T01:53:48.860Z,25.80
2019-01-14T01:56:16.261Z,19.52
2019-01-14T01:58:43.695Z,19.50
2019-01-14T02:01:11.098Z,16.57
2019-01-14T02:03:38.528Z,11.78
2019-01-14T02:06:05.945Z,16.23
2019-01-14T02:08:33.374Z,16.80
2019-01-14T02:11:00.769Z,19.80
2019-01-14T02:13:28.179Z,22.32
2019-01-14T02:15:55.649Z,24.45
2019-01-14T02:18:23.075Z,13.72
2019-01-14T02:20:50.471Z,17.12
2019-01-14T02:23:17.906Z,21.50
2019-01-14T02:25:45.330Z,26.42
2019-01-14T02:28:12.766Z,18.15
2019-01-14T02:30:40.173Z,16.37
2019-01-14T02:33:07.611Z,20.80
2019-01-14T02:35:35.020Z,27.40
2019-01-14T02:38:02.478Z,22.48
2019-01-14T02:40:29.887Z,10.05
2019-01-14T02:42:57.304Z,20.23
2019-01-14T02:45:24.731Z,16.87
2019-01-14T02:47:52.137Z,13.75
2019-01-14T02:50:19.567Z,12.70
2019-01-14T02:52:47.045Z,22.35
2019-01-14T02:55:14.496Z,14.70
2019-01-14T02:57:41.894Z,31.23
2019-01-14T03:00:10.842Z,20.20
2019-01-14T03:02:38.278Z,18.60
2019-01-14T03:05:06.865Z,20.25
2019-01-14T03:07:34.267Z,16.15
2019-01-14T03:10:01.692Z,24.32
2019-01-14T03:12:29.139Z,19.48
2019-01-14T03:14:56.540Z,21.30
2019-01-14T03:17:23.941Z,25.08
2019-01-14T03:19:51.407Z,12.95
2019-01-14T03:22:18.810Z,13.55
2019-01-14T03:24:46.214Z,22.55
2019-01-14T03:27:13.648Z,18.05
2019-01-14T03:29:41.109Z,15.10
2019-01-14T03:32:08.514Z,16.48
2019-01-14T03:34:35.923Z,25.05
2019-01-14T03:37:05.630Z,22.80
2019-01-14T03:39:32.407Z,18.37
2019-01-14T03:41:59.840Z,24.47
2019-01-14T03:44:27.241Z,16.20
2019-01-14T03:46:54.647Z,19.62
2019-01-14T03:49:22.082Z,19.42
2019-01-14T03:51:49.490Z,25.43
2019-01-14T03:54:16.985Z,14.60
2019-01-14T03:56:44.399Z,17.85
2019-01-14T03:59:11.915Z,13.95
2019-01-14T04:01:39.337Z,18.20
2019-01-14T04:04:06.744Z,18.20
2019-01-14T04:06:34.166Z,38.15
2019-01-14T04:09:01.590Z,10.20
2019-01-14T04:11:29.018Z,16.45
2019-01-14T04:13:56.418Z,11.22
2019-01-14T04:16:23.832Z,16.95
2019-01-14T04:18:51.314Z,13.18
2019-01-14T04:21:18.736Z,20.25
2019-01-14T04:23:46.153Z,19.65
2019-01-14T04:26:15.218Z,13.05
2019-01-14T04:28:42.641Z,14.47
2019-01-14T04:31:10.092Z,19.07
2019-01-14T04:33:37.500Z,13.28
2019-01-14T04:36:04.970Z,18.07
2019-01-14T04:38:32.565Z,10.65
2019-01-14T04:41:00.005Z,24.18
2019-01-14T04:43:27.540Z,21.00
2019-01-14T04:45:54.951Z,17.45
2019-01-14T04:48:22.355Z,12.80
2019-01-14T04:50:49.912Z,12.35
2019-01-14T04:53:17.322Z,15.08
2019-01-14T04:55:44.822Z,13.15
2019-01-14T04:58:12.246Z,15.25
2019-01-14T05:00:39.681Z,20.57
2019-01-14T05:03:07.131Z,17.50
2019-01-14T05:05:34.540Z,15.75
2019-01-14T05:08:01.949Z,16.40
2019-01-14T05:10:29.362Z,20.30
2019-01-14T05:12:56.777Z,17.75
2019-01-14T05:15:24.249Z,18.52
2019-01-14T05:17:51.652Z,14.03
2019-01-14T05:20:20.346Z,11.15
2019-01-14T05:22:47.791Z,16.20
2019-01-14T05:25:15.213Z,28.57
2019-01-14T05:27:42.675Z,15.83
2019-01-14T05:30:11.854Z,14.15
2019-01-14T05:32:39.257Z,15.40
2019-01-14T05:35:07.277Z,11.12
2019-01-14T05:37:37.751Z,11.78
2019-01-14T05:40:05.372Z,10.32
2019-01-14T05:42:32.774Z,20.25
2019-01-14T05:45:00.240Z,11.40
2019-01-14T05:47:27.602Z,16.17
2019-01-14T05:49:55.014Z,18.48
2019-01-14T05:52:22.461Z,18.87
2019-01-14T05:54:49.938Z,17.40
2019-01-14T05:57:17.426Z,12.90
2019-01-14T05:59:44.834Z,16.17
2019-01-14T06:02:12.252Z,16.12
2019-01-14T06:04:39.677Z,15.55
2019-01-14T06:07:07.130Z,14.15
2019-01-14T06:09:34.551Z,12.47
2019-01-14T06:12:01.976Z,11.93
2019-01-14T06:14:29.428Z,8.10
2019-01-14T06:16:56.845Z,18.95
2019-01-14T06:19:24.814Z,15.90
2019-01-14T06:21:52.246Z,20.37
2019-01-14T06:24:19.656Z,14.23
2019-01-14T06:26:47.124Z,12.90
2019-01-14T06:29:14.546Z,14.10
2019-01-14T06:31:41.994Z,11.43
2019-01-14T06:34:09.445Z,12.73
2019-01-14T06:36:36.825Z,20.30
2019-01-14T06:39:05.767Z,12.88
2019-01-14T06:41:33.197Z,9.98
2019-01-14T06:44:00.597Z,12.70
2019-01-14T06:46:28.119Z,12.18
2019-01-14T06:48:55.559Z,17.55
2019-01-14T06:51:22.965Z,15.85
2019-01-14T06:53:50.374Z,15.60
2019-01-14T06:56:17.827Z,10.85
2019-01-14T06:58:45.302Z,7.70
2019-01-14T07:01:12.710Z,14.43
2019-01-14T07:03:40.156Z,12.18
2019-01-14T07:06:07.568Z,14.15
2019-01-14T07:08:34.996Z,13.25
2019-01-14T07:11:02.945Z,17.75
2019-01-14T07:13:30.354Z,15.58
2019-01-14T07:15:57.751Z,11.43
2019-01-14T07:18:25.171Z,9.08
2019-01-14T07:20:52.573Z,7.67
2019-01-14T07:23:20.000Z,12.10
2019-01-14T07:25:47.435Z,7.65
2019-01-14T07:28:14.892Z,10.70
2019-01-14T07:30:42.298Z,2.83
2019-01-14T07:33:09.689Z,4.17
2019-01-14T07:35:37.119Z,4.58
2019-01-14T07:38:06.971Z,4.83
2019-01-14T07:40:33.686Z,8.65
2019-01-14T07:43:01.120Z,7.53
2019-01-14T07:45:28.514Z,9.00
2019-01-14T07:47:55.942Z,9.60
2019-01-14T07:50:23.529Z,13.38
2019-01-14T07:52:51.021Z,7.42
2019-01-14T07:55:18.415Z,8.78
2019-01-14T07:57:45.844Z,9.23
2019-01-14T08:00:14.805Z,7.90
2019-01-14T08:02:42.219Z,8.78
2019-01-14T08:05:09.637Z,9.93
2019-01-14T08:07:37.045Z,7.92
2019-01-14T08:10:05.848Z,12.43
2019-01-14T08:12:33.301Z,9.03
2019-01-14T08:15:00.720Z,11.73
2019-01-14T08:17:28.249Z,7.40
2019-01-14T08:19:55.730Z,6.97
2019-01-14T08:22:23.177Z,10.03
2019-01-14T08:24:50.608Z,8.05
2019-01-14T08:27:17.976Z,4.15
2019-01-14T08:29:45.410Z,6.97
2019-01-14T08:32:12.824Z,8.48
2019-01-14T08:34:40.295Z,8.75
2019-01-14T08:37:08.555Z,10.85
2019-01-14T08:39:36.009Z,6.47
2019-01-14T08:42:04.044Z,3.40
2019-01-14T08:44:33.094Z,2.95
2019-01-14T08:47:00.595Z,9.20
2019-01-14T08:49:28.361Z,10.45
2019-01-14T08:51:55.785Z,7.17
2019-01-14T08:54:23.189Z,11.80
2019-01-14T08:56:50.938Z,10.40
2019-01-14T08:59:18.362Z,8.20
2019-01-14T09:01:45.770Z,7.80
2019-01-14T09:04:13.202Z,8.93
2019-01-14T09:06:40.623Z,8.95
2019-01-14T09:09:09.765Z,6.40
2019-01-14T09:11:37.194Z,10.50
2019-01-14T09:14:04.986Z,7.60
2019-01-14T09:16:33.370Z,5.28
2019-01-14T09:19:00.785Z,11.70
2019-01-14T09:21:28.270Z,7.30
2019-01-14T09:23:55.729Z,9.30
2019-01-14T09:26:23.404Z,7.53
2019-01-14T09:28:53.728Z,7.10
2019-01-14T09:31:22.650Z,7.72
2019-01-14T09:33:52.731Z,15.10
2019-01-14T09:36:20.505Z,3.95
2019-01-14T09:38:47.901Z,6.37
2019-01-14T09:41:15.403Z,5.03
2019-01-14T09:43:43.090Z,8.10
2019-01-14T09:46:10.504Z,9.53
2019-01-14T09:48:37.941Z,10.15
2019-01-14T09:51:05.398Z,9.88
2019-01-14T09:53:33.221Z,10.90
2019-01-14T09:56:00.662Z,7.28
2019-01-14T09:58:28.366Z,8.08
2019-01-14T10:00:55.826Z,7.30
2019-01-14T10:03:23.238Z,7.30
2019-01-14T10:05:51.024Z,9.73
2019-01-14T10:08:21.659Z,5.37
2019-01-14T10:10:49.425Z,10.53
2019-01-14T10:13:16.884Z,7.00
2019-01-14T10:15:44.648Z,11.22
2019-01-14T10:18:12.514Z,5.05
2019-01-14T10:20:39.946Z,6.62
2019-01-14T10:23:27.010Z,5.75
2019-01-14T10:26:02.245Z,7.62
2019-01-14T10:28:30.108Z,10.30
2019-01-14T10:30:57.594Z,12.35
2019-01-14T10:33:25.362Z,7.67
2019-01-14T10:35:54.589Z,16.10
2019-01-14T10:38:22.329Z,6.10
2019-01-14T10:40:49.750Z,15.43
2019-01-14T10:43:18.048Z,6.85
2019-01-14T10:45:46.165Z,8.90
2019-01-14T10:48:15.437Z,15.18
2019-01-14T10:50:43.465Z,8.13
2019-01-14T10:53:10.962Z,6.53
2019-01-14T10:55:39.016Z,7.15
2019-01-14T10:58:10.146Z,8.30
2019-01-14T11:00:38.278Z,10.82
2019-01-14T11:03:06.663Z,8.28
2019-01-14T11:05:40.112Z,9.80
2019-01-14T11:08:08.446Z,8.80
2019-01-14T11:10:36.389Z,12.33
2019-01-14T11:13:04.854Z,10.32
2019-01-14T11:15:33.477Z,8.25
2019-01-14T11:18:02.306Z,9.10
2019-01-14T11:20:31.590Z,10.85
2019-01-14T11:22:59.849Z,11.83
2019-01-14T11:25:29.401Z,8.13
2019-01-14T11:27:57.560Z,10.55
2019-01-14T11:30:26.875Z,7.70
2019-01-14T11:32:54.984Z,7.03
2019-01-14T11:35:22.727Z,11.20
2019-01-14T11:37:51.790Z,8.80
2019-01-14T11:40:21.649Z,5.05
2019-01-14T11:42:50.833Z,9.08
2019-01-14T11:45:18.837Z,12.65
2019-01-14T11:47:48.229Z,6.83
2019-01-14T11:50:17.641Z,9.15
2019-01-14T11:52:46.277Z,7.85
2019-01-14T11:55:15.265Z,5.35
2019-01-14T11:57:42.733Z,8.65
2019-01-14T12:00:17.474Z,6.22
2019-01-14T12:02:44.979Z,6.28
2019-01-14T12:05:12.545Z,5.17
2019-01-14T12:07:40.281Z,7.58
2019-01-14T12:10:08.965Z,6.95
2019-01-14T12:12:36.348Z,5.58
2019-01-14T12:15:05.347Z,10.35
2019-01-14T12:17:32.753Z,8.90
2019-01-14T12:20:00.510Z,9.48
2019-01-14T12:22:28.277Z,8.85
2019-01-14T12:24:56.034Z,8.98
2019-01-14T12:27:23.805Z,15.70
2019-01-14T12:29:51.303Z,7.70
2019-01-14T12:32:18.703Z,9.53
2019-01-14T12:34:46.125Z,7.15
2019-01-14T12:37:13.943Z,9.43
2019-01-14T12:39:41.709Z,4.35
2019-01-14T12:42:09.160Z,8.33
2019-01-14T12:44:36.642Z,13.40
2019-01-14T12:47:04.124Z,7.87
2019-01-14T12:49:31.549Z,15.23
2019-01-14T12:51:59.305Z,8.20
2019-01-14T12:54:27.172Z,7.90
2019-01-14T12:56:54.936Z,4.90
2019-01-14T12:59:22.702Z,9.98
2019-01-14T13:01:50.117Z,6.53
2019-01-14T13:04:17.526Z,11.08
2019-01-14T13:06:44.992Z,9.73
2019-01-14T13:09:12.455Z,7.87
2019-01-14T13:11:39.935Z,8.83
2019-01-14T13:14:07.367Z,9.55
2019-01-14T13:16:35.131Z,9.20
2019-01-14T13:19:02.525Z,6.08
2019-01-14T13:21:29.972Z,4.65
2019-01-14T13:23:57.377Z,5.00
2019-01-14T13:26:24.784Z,7.08
2019-01-14T13:28:52.297Z,4.83
2019-01-14T13:31:20.023Z,9.28
2019-01-14T13:33:47.418Z,7.97
2019-01-14T13:36:14.960Z,13.05
2019-01-14T13:38:42.371Z,5.60
2019-01-14T13:41:09.803Z,9.10
2019-01-14T13:43:37.241Z,6.45
2019-01-14T13:46:04.726Z,5.70
2019-01-14T13:48:32.128Z,5.15
2019-01-14T13:50:59.610Z,4.53
2019-01-14T13:53:27.016Z,10.58
2019-01-14T13:55:59.421Z,5.22
2019-01-14T13:58:24.016Z,3.37
2019-01-14T14:00:51.849Z,7.78
2019-01-14T14:03:19.482Z,3.67
2019-01-14T14:05:46.899Z,5.65
2019-01-14T14:08:14.715Z,4.78
2019-01-14T14:10:42.477Z,6.00
2019-01-14T14:13:09.881Z,6.35
2019-01-14T14:15:37.408Z,4.95
2019-01-14T14:18:05.165Z,5.78
2019-01-14T14:20:32.565Z,8.20
2019-01-14T14:23:00.379Z,8.25
2019-01-14T14:25:27.783Z,6.55
2019-01-14T14:27:55.507Z,8.15
2019-01-14T14:30:24.098Z,6.45
2019-01-14T14:32:51.531Z,12.93
2019-01-14T14:35:18.959Z,7.72
2019-01-14T14:37:46.387Z,11.15
2019-01-14T14:40:14.082Z,11.70
2019-01-14T14:42:41.554Z,6.60
2019-01-14T14:45:10.325Z,4.85
2019-01-14T14:47:38.348Z,5.40
2019-01-14T14:50:13.316Z,10.60
2019-01-14T14:52:40.832Z,6.45
2019-01-14T14:55:08.414Z,7.75
2019-01-14T14:57:35.816Z,7.83
2019-01-14T15:00:04.830Z,6.58
2019-01-14T15:02:32.498Z,3.70
2019-01-14T15:05:00.008Z,6.03
2019-01-14T15:07:27.462Z,5.05
2019-01-14T15:09:55.938Z,6.12
2019-01-14T15:12:23.859Z,3.77
2019-01-14T15:14:51.400Z,4.95
2019-01-14T15:17:19.073Z,7.87
2019-01-14T15:19:46.497Z,5.75
2019-01-14T15:22:13.950Z,6.78
2019-01-14T15:24:41.400Z,5.83
2019-01-14T15:27:08.805Z,7.95
2019-01-14T15:29:36.226Z,7.35
2019-01-14T15:32:03.632Z,5.72
2019-01-14T15:34:31.061Z,3.80
2019-01-14T15:36:59.038Z,6.70
2019-01-14T15:39:26.458Z,8.48
2019-01-14T15:41:53.866Z,4.45
2019-01-14T15:44:21.563Z,6.47
2019-01-14T15:46:48.991Z,9.60
2019-01-14T15:49:16.398Z,6.37
2019-01-14T15:51:43.829Z,9.40
2019-01-14T15:54:11.696Z,10.35
2019-01-14T15:56:39.212Z,12.43
2019-01-14T15:59:06.631Z,8.43
2019-01-14T16:01:34.078Z,6.75
2019-01-14T16:04:01.494Z,10.98
2019-01-14T16:06:28.909Z,8.38
2019-01-14T16:08:56.650Z,6.25
2019-01-14T16:11:24.073Z,6.45
2019-01-14T16:13:51.497Z,6.80
2019-01-14T16:16:19.440Z,9.08
2019-01-14T16:18:46.895Z,6.65
2019-01-14T16:21:14.762Z,7.00
2019-01-14T16:23:42.227Z,13.95
2019-01-14T16:26:09.984Z,6.97
2019-01-14T16:28:37.400Z,8.58
2019-01-14T16:31:04.818Z,6.75
2019-01-14T16:33:32.230Z,5.47
2019-01-14T16:35:59.933Z,12.75
2019-01-14T16:38:27.887Z,5.45
2019-01-14T16:40:55.650Z,3.02
2019-01-14T16:43:23.051Z,6.50
2019-01-14T16:45:50.778Z,5.35
2019-01-14T16:48:18.540Z,7.58
2019-01-14T16:50:46.412Z,7.70
2019-01-14T16:53:13.810Z,4.35
2019-01-14T16:55:42.888Z,9.05
2019-01-14T16:58:10.357Z,9.33
2019-01-14T17:00:37.827Z,5.83
2019-01-14T17:03:05.274Z,5.33
2019-01-14T17:05:32.771Z,9.80
2019-01-14T17:08:00.267Z,4.75
2019-01-14T17:10:27.748Z,8.98
2019-01-14T17:12:55.163Z,6.53
2019-01-14T17:15:22.932Z,9.38
2019-01-14T17:17:50.388Z,9.45
2019-01-14T17:20:18.691Z,8.30
2019-01-14T17:22:46.216Z,5.30
2019-01-14T17:25:13.771Z,9.53
2019-01-14T17:27:41.239Z,4.20
2019-01-14T17:30:12.814Z,7.83
2019-01-14T17:32:40.685Z,7.60
2019-01-14T17:35:08.172Z,8.83
2019-01-14T17:37:35.627Z,5.87
2019-01-14T17:40:04.506Z,6.17
2019-01-14T17:42:32.001Z,7.60
2019-01-14T17:44:59.832Z,4.62
2019-01-14T17:47:27.219Z,8.95
2019-01-14T17:49:54.930Z,10.53
2019-01-14T17:52:22.390Z,4.97
2019-01-14T17:54:50.149Z,4.35
2019-01-14T17:57:17.686Z,10.32
2019-01-14T17:59:45.096Z,9.93
2019-01-14T18:02:12.602Z,7.90
2019-01-14T18:04:40.394Z,7.62
2019-01-14T18:07:08.070Z,5.75
2019-01-14T18:09:35.658Z,7.30
2019-01-14T18:12:03.157Z,9.20
2019-01-14T18:14:32.390Z,8.10
2019-01-14T18:17:00.567Z,7.90
2019-01-14T18:19:28.865Z,8.38
2019-01-14T18:21:57.839Z,7.35
2019-01-14T18:24:26.902Z,9.75
2019-01-14T18:26:56.228Z,10.98
2019-01-14T18:29:25.495Z,12.55
2019-01-14T18:31:54.320Z,8.60
2019-01-14T18:34:22.933Z,5.53
2019-01-14T18:36:50.946Z,10.60
2019-01-14T18:39:18.378Z,10.88
2019-01-14T18:41:46.445Z,6.05
2019-01-14T18:44:15.960Z,10.08
2019-01-14T18:46:43.389Z,11.20
2019-01-14T18:49:13.692Z,12.37
2019-01-14T18:51:41.767Z,10.50
2019-01-14T18:54:11.509Z,13.28
2019-01-14T18:56:39.443Z,7.92
2019-01-14T18:59:08.808Z,8.50
2019-01-14T19:01:38.868Z,18.67
2019-01-14T19:04:06.432Z,15.45
2019-01-14T19:06:34.190Z,18.52
2019-01-14T19:09:02.274Z,18.40
2019-01-14T19:11:29.840Z,15.75
2019-01-14T19:13:57.493Z,10.30
2019-01-14T19:16:25.215Z,9.80
2019-01-14T19:18:52.671Z,9.13
2019-01-14T19:21:20.160Z,8.70
2019-01-14T19:23:47.576Z,10.28
2019-01-14T19:26:15.089Z,11.80
2019-01-14T19:28:43.975Z,9.00
2019-01-14T19:31:11.638Z,10.53
2019-01-14T19:33:39.538Z,8.33
2019-01-14T19:36:06.973Z,14.90
2019-01-14T19:38:34.430Z,11.93
2019-01-14T19:41:02.212Z,10.70
2019-01-14T19:43:30.056Z,7.62
2019-01-14T19:45:57.709Z,13.48
2019-01-14T19:48:26.510Z,11.70
2019-01-14T19:50:53.960Z,8.98
2019-01-14T19:53:21.395Z,12.45
2019-01-14T19:55:48.821Z,11.78
2019-01-14T19:58:16.330Z,6.80
2019-01-14T20:00:43.960Z,10.65
2019-01-14T20:03:11.402Z,14.95
2019-01-14T20:05:38.842Z,11.05
2019-01-14T20:08:06.556Z,8.40
2019-01-14T20:10:34.348Z,15.55
2019-01-14T20:13:01.783Z,8.73
2019-01-14T20:15:29.441Z,14.35
2019-01-14T20:17:56.861Z,11.22
2019-01-14T20:20:25.309Z,16.23
2019-01-14T20:22:54.003Z,7.05
2019-01-14T20:25:22.679Z,8.30
2019-01-14T20:27:50.114Z,9.48
2019-01-14T20:30:19.146Z,9.23
2019-01-14T20:32:46.941Z,9.15
2019-01-14T20:35:14.497Z,11.68
2019-01-14T20:37:41.935Z,12.28
2019-01-14T20:40:11.023Z,12.18
2019-01-14T20:42:38.631Z,10.23
2019-01-14T20:45:07.229Z,12.07
2019-01-14T20:47:34.673Z,13.10
2019-01-14T20:50:03.706Z,9.23
2019-01-14T20:52:32.895Z,9.08
2019-01-14T20:55:01.883Z,13.30
2019-01-14T20:57:30.333Z,9.38
2019-01-14T21:00:00.478Z,9.33
2019-01-14T21:02:29.982Z,9.15
2019-01-14T21:04:58.106Z,10.03
2019-01-14T21:07:25.828Z,11.60
2019-01-14T21:09:53.633Z,9.95
2019-01-14T21:12:22.583Z,11.03
2019-01-14T21:14:52.459Z,12.03
2019-01-14T21:17:22.020Z,13.65
2019-01-14T21:19:51.495Z,8.90
2019-01-14T21:22:19.864Z,11.70
2019-01-14T21:24:47.980Z,13.95
2019-01-14T21:27:15.767Z,15.03
2019-01-14T21:29:44.767Z,13.45
2019-01-14T21:32:13.151Z,10.93
2019-01-14T21:34:40.878Z,16.12
2019-01-14T21:37:09.058Z,10.63
2019-01-14T21:39:38.513Z,13.40
2019-01-14T21:42:08.063Z,14.20
2019-01-14T21:44:36.418Z,10.20
2019-01-14T21:47:05.568Z,13.28
2019-01-14T21:49:33.065Z,11.95
2019-01-14T21:52:01.533Z,13.08
2019-01-14T21:54:29.153Z,14.23
2019-01-14T21:56:58.772Z,8.85
2019-01-14T21:59:26.260Z,16.48
2019-01-14T22:01:54.428Z,21.15
2019-01-14T22:04:22.455Z,14.28
2019-01-14T22:06:50.479Z,14.63
2019-01-14T22:09:18.589Z,13.98
2019-01-14T22:11:46.185Z,10.25
2019-01-14T22:14:13.633Z,14.30
2019-01-14T22:16:41.144Z,16.67
2019-01-14T22:19:08.701Z,13.05
2019-01-14T22:21:36.204Z,12.53
2019-01-14T22:24:06.049Z,12.07
2019-01-14T22:26:35.479Z,9.85
2019-01-14T22:29:04.584Z,10.68
2019-01-14T22:31:32.802Z,10.45
2019-01-14T22:34:01.534Z,17.30
2019-01-14T22:36:30.893Z,9.60
2019-01-14T22:39:01.102Z,12.03
2019-01-14T22:41:30.561Z,7.72
2019-01-14T22:43:59.262Z,14.35
2019-01-14T22:46:27.953Z,13.98
2019-01-14T22:48:57.071Z,14.20
2019-01-14T22:51:26.327Z,8.80
2019-01-14T22:53:57.580Z,11.63
2019-01-14T22:56:29.104Z,11.57
2019-01-14T22:59:01.009Z,8.58
2019-01-14T23:01:31.178Z,9.00
2019-01-14T23:04:00.003Z,11.57
2019-01-14T23:06:31.521Z,8.40
2019-01-14T23:09:04.078Z,15.98
2019-01-14T23:11:33.691Z,19.95
2019-01-14T23:14:03.819Z,7.85
2019-01-14T23:16:33.988Z,11.57
2019-01-14T23:19:06.533Z,14.75
2019-01-14T23:21:36.296Z,9.00
2019-01-14T23:24:04.760Z,9.35
2019-01-14T23:26:32.291Z,12.88
2019-01-14T23:28:59.782Z,10.75
2019-01-14T23:31:27.307Z,12.70
2019-01-14T23:33:54.793Z,12.45
2019-01-14T23:36:22.404Z,8.33
2019-01-14T23:38:50.243Z,9.25
2019-01-14T23:41:17.695Z,12.10
2019-01-14T23:43:45.226Z,13.35
2019-01-14T23:46:12.996Z,12.33
2019-01-14T23:48:40.727Z,11.53
2019-01-14T23:51:08.472Z,11.05
2019-01-14T23:53:35.927Z,10.38
2019-01-14T23:56:04.627Z,11.25
2019-01-14T23:58:32.215Z,9.10
